MGGT/GUA METAR and TAF weather

Enter ICAO airport designator
Station Type Date Time Source
MGGT METAR 2022/07/01 01:00 UTC NOAA

MGGT 010100Z 03014KT 9999 FEW020 21/15 Q1022 A3018 FEW200


Station Type Date Time Source
MGGT Decoded METAR 2022/07/01 01:00 UTC NOAA

Guatemala Aeropuertola Aurora , Guatemala (MGGT) 14-35N 090-31W 1489M
Jun 30, 2022 - 09:00 PM EDT / 2022.07.01 0100 UTC
Wind: from the NNE (030 degrees) at 16 MPH (14 KT):0
Visibility: greater than 7 mile(s):0
Sky conditions: mostly clear
Temperature: 69 F (21 C)
Dew Point: 59 F (15 C)
Relative Humidity: 68%
Pressure (altimeter): 30.18 in. Hg (1022 hPa)
ob: MGGT 010100Z 03014KT 9999 FEW020 21/15 Q1022 A3018 FEW200
cycle: 1

Station Type Date Time Source
MGGT TAF 2022/06/30 18:04 UTC NOAA

TAF MGGT 301700Z 3018/0118 36016KT 9999 FEW018 TX27/3020Z TN16/0112Z
TEMPO 3020/3024 SCT020
BECMG 0101/0103 SCT016
BECMG 0115/0117 FEW020

Example: see airport list